createdAt,value
2019-04-11T15:48:12.774Z,-5.2
2019-04-11T15:48:23.381Z,-5.2
2019-04-11T15:48:23.788Z,-5.2
2019-04-11T15:48:27.786Z,-5.1
2019-04-11T15:48:32.767Z,-5
2019-04-11T15:48:37.773Z,-5
2019-04-11T15:48:42.811Z,-4.9
2019-04-11T15:48:47.807Z,-4.9
2019-04-11T15:48:53.823Z,-4.9
2019-04-11T15:48:57.839Z,-4.9
2019-04-11T15:49:02.891Z,-4.9
2019-04-11T15:49:19.551Z,-4.9
2019-04-11T15:49:20.306Z,-5
2019-04-11T15:49:21.032Z,-4.9
2019-04-11T15:49:29.963Z,-4.9
2019-04-11T15:49:31.031Z,-4.9
2019-04-11T15:49:33.035Z,-4.9
2019-04-11T15:49:35.815Z,-4.9
2019-04-11T15:49:53.338Z,-4.9
2019-04-11T15:50:53.372Z,-5
2019-04-11T15:51:53.419Z,-5.1
2019-04-11T15:52:53.561Z,-5.1
2019-04-11T15:53:53.632Z,-5.4
2019-04-11T15:54:54.571Z,-5.1
2019-04-11T15:55:53.609Z,-5.1
2019-04-11T15:56:07.810Z,-5.1
2019-04-11T15:56:12.826Z,-5.1
2019-04-11T15:56:56.906Z,-5.1
2019-04-11T15:57:36.567Z,-5.1
2019-04-11T15:57:56.953Z,-5.1
2019-04-11T15:58:23.120Z,-5
2019-04-11T15:59:23.193Z,-5.1
2019-04-11T16:00:23.203Z,-5.3
2019-04-11T16:01:23.247Z,-5.1
2019-04-11T16:02:23.240Z,-5
2019-04-11T16:03:24.581Z,-5.1
2019-04-11T16:04:23.395Z,-5.4
2019-04-11T16:05:23.476Z,-4.9
2019-04-11T16:06:23.429Z,-5.2
2019-04-11T16:07:23.479Z,-5.5
2019-04-11T16:08:23.396Z,-5.3
2019-04-11T16:09:23.460Z,-5.2
2019-04-11T16:10:23.454Z,-5
2019-04-11T16:11:23.483Z,-5.2
2019-04-11T16:12:23.566Z,-5.2
2019-04-11T16:13:23.565Z,-5.3
2019-04-11T16:14:23.605Z,-5.5
2019-04-11T16:15:23.623Z,-5.2
2019-04-11T16:16:23.673Z,-5.1
2019-04-11T16:17:23.716Z,-5.1
2019-04-11T16:18:23.713Z,-5.2
2019-04-11T16:19:23.751Z,-5.6
2019-04-11T16:20:23.801Z,-5.1
2019-04-11T16:21:24.236Z,-5.1
2019-04-11T16:22:24.845Z,-5.1
2019-04-11T16:23:26.092Z,-5.1
2019-04-11T16:24:27.306Z,-5.3
2019-04-11T16:25:23.812Z,-5.1
2019-04-11T16:26:23.827Z,-5.2
2019-04-11T16:27:23.818Z,-5.2
2019-04-11T16:28:23.868Z,-5.2
2019-04-11T16:29:23.853Z,-5
2019-04-11T16:30:23.851Z,-4.9
2019-04-11T16:31:23.874Z,-5
2019-04-11T16:32:23.908Z,-5
2019-04-11T16:33:24.915Z,-5.4
2019-04-11T16:34:23.885Z,-5.6
2019-04-11T16:35:26.027Z,-5.4
2019-04-11T16:36:26.901Z,-5.7
2019-04-11T16:37:23.926Z,-5.1
2019-04-11T16:38:23.956Z,-5.5
2019-04-11T16:39:24.030Z,-5.5
2019-04-11T16:40:23.949Z,-5.2
2019-04-11T16:41:24.495Z,-5
2019-04-11T16:42:24.060Z,-5.2
2019-04-11T16:43:24.393Z,-5.2
2019-04-11T16:44:25.018Z,-5.6
2019-04-11T16:45:24.971Z,-5.7
2019-04-11T16:46:24.783Z,-5.3
2019-04-11T16:47:25.954Z,-5.2
2019-04-11T16:48:25.653Z,-5.2
2019-04-11T16:49:25.935Z,-5.5
2019-04-11T16:50:23.994Z,-5.6
2019-04-11T16:51:30.541Z,-5.6
2019-04-11T16:52:24.005Z,-5.2
2019-04-11T16:53:24.020Z,-5.4
2019-04-11T16:54:24.045Z,-5.7
2019-04-11T16:55:24.126Z,-5.1
2019-04-11T16:56:24.716Z,-5.2
2019-04-11T16:57:25.753Z,-5
2019-04-11T16:58:24.272Z,-5.2
2019-04-11T16:59:24.735Z,-5.2
2019-04-11T17:00:27.151Z,-5.4
2019-04-11T17:01:24.682Z,-5.4
2019-04-11T17:02:24.934Z,-5.6
2019-04-11T17:03:25.035Z,-5.4
2019-04-11T17:04:25.957Z,-5.2
2019-04-11T17:05:26.718Z,-5.3
2019-04-11T17:06:25.895Z,-5.1
2019-04-11T17:07:26.053Z,-5.3
2019-04-11T17:08:25.881Z,-5.3
2019-04-11T17:09:26.658Z,-5.4
2019-04-11T17:10:26.783Z,-5.4
2019-04-11T17:11:26.922Z,-5.4
2019-04-11T17:12:26.638Z,-5.6
2019-04-11T17:13:25.970Z,-5.6
2019-04-11T17:14:28.007Z,-5.6
2019-04-11T17:15:25.022Z,-5.5
2019-04-11T17:16:25.049Z,-5.6
2019-04-11T17:17:26.319Z,-5.3
2019-04-11T17:18:25.121Z,-5.4
2019-04-11T17:19:25.181Z,-5.4
2019-04-11T17:20:25.193Z,-5.4
2019-04-11T17:21:25.238Z,-5.1
2019-04-11T17:22:25.299Z,-5.2
2019-04-11T17:23:25.347Z,-5
2019-04-11T17:24:25.387Z,-5
2019-04-11T17:25:25.441Z,-5.2
2019-04-11T17:26:25.516Z,-5.5
2019-04-11T17:27:25.559Z,-5.2
2019-04-11T17:28:25.721Z,-5.5
2019-04-11T17:29:25.650Z,-5.7
2019-04-11T17:30:25.597Z,-5.6
2019-04-11T17:31:26.544Z,-5.6
2019-04-11T17:32:26.432Z,-5.7
2019-04-11T17:33:28.509Z,-5.9
2019-04-11T17:34:25.814Z,-5.8
2019-04-11T17:35:25.858Z,-6.1
2019-04-11T17:36:25.894Z,-6
2019-04-11T17:37:25.968Z,-5.7
2019-04-11T17:38:25.992Z,-5.9
2019-04-11T17:39:28.333Z,-5.8
2019-04-11T17:40:26.006Z,-5.6
2019-04-11T17:41:26.051Z,-5.6
2019-04-11T17:42:26.055Z,-5.3
2019-04-11T17:43:26.174Z,-5.3
2019-04-11T17:44:26.103Z,-5.3
2019-04-11T17:45:26.183Z,-5.2
2019-04-11T17:46:26.909Z,-5.7
2019-04-11T17:47:27.554Z,-5.8
2019-04-11T17:48:26.256Z,-5.6
2019-04-11T17:49:26.283Z,-5.4
2019-04-11T17:50:26.376Z,-5.3
2019-04-11T17:51:26.385Z,-5.3
2019-04-11T17:52:26.413Z,-5.3
2019-04-11T17:53:26.449Z,-5.7
2019-04-11T17:54:26.520Z,-5.4
2019-04-11T17:55:26.535Z,-5.3
2019-04-11T17:56:26.561Z,-5.6
2019-04-11T17:57:27.074Z,-5.5
2019-04-11T17:58:27.196Z,-5.7
2019-04-11T17:59:28.767Z,-5.2
2019-04-11T18:00:29.491Z,-5.4
2019-04-11T18:01:26.712Z,-5.3
2019-04-11T18:02:26.707Z,-5.2
2019-04-11T18:03:26.744Z,-5.4
2019-04-11T18:04:26.810Z,-5.3
2019-04-11T18:05:26.803Z,-5.4
2019-04-11T18:06:26.849Z,-5.6
2019-04-11T18:07:59.096Z,-5.7
2019-04-11T18:08:26.951Z,-5.8
2019-04-11T18:09:26.968Z,-5.6
2019-04-11T18:10:26.931Z,-5.9
2019-04-11T18:11:26.947Z,-5.8
2019-04-11T18:12:26.973Z,-5.8
2019-04-11T18:13:30.419Z,-5.9
2019-04-11T18:14:30.606Z,-5.7
2019-04-11T18:15:28.735Z,-5.7
2019-04-11T18:16:28.794Z,-5.6
2019-04-11T18:17:27.065Z,-5.5
2019-04-11T18:18:27.104Z,-5.9
2019-04-11T18:19:27.103Z,-5.6
2019-04-11T18:20:27.343Z,-5.3
2019-04-11T18:21:27.126Z,-5.5
2019-04-11T18:22:27.153Z,-5.4
2019-04-11T18:23:27.182Z,-5.3
2019-04-11T18:24:27.175Z,-5.5
2019-04-11T18:25:27.189Z,-5.7
2019-04-11T18:26:27.191Z,-5.6
2019-04-11T18:27:27.241Z,-5.8
2019-04-11T18:28:27.238Z,-5.5
2019-04-11T18:29:29.475Z,-5.9
2019-04-11T18:30:27.227Z,-5.6
2019-04-11T18:31:27.270Z,-5.5
2019-04-11T18:32:27.269Z,-5.7
2019-04-11T18:33:31.383Z,-5.8
2019-04-11T18:34:27.252Z,-5.9
2019-04-11T18:35:27.249Z,-5.7
2019-04-11T18:36:27.289Z,-5.9
2019-04-11T18:37:27.291Z,-6
2019-04-11T18:38:27.240Z,-5.9
2019-04-11T18:39:27.289Z,-5.9
2019-04-11T18:40:27.300Z,-5.7
2019-04-11T18:41:29.828Z,-5.7
2019-04-11T18:42:27.421Z,-5.7
2019-04-11T18:43:27.443Z,-5.7
2019-04-11T18:44:27.481Z,-5.9
2019-04-11T18:45:27.591Z,-5.7
2019-04-11T18:46:27.554Z,-5.7
2019-04-11T18:47:27.606Z,-5.7
2019-04-11T18:48:27.665Z,-5.8
2019-04-11T18:49:27.710Z,-5.8
2019-04-11T18:50:28.852Z,-5.5
2019-04-11T18:51:30.317Z,-5.7
2019-04-11T18:52:29.056Z,-5.6
2019-04-11T18:53:27.879Z,-5.7
2019-04-11T18:54:27.923Z,-5.9
2019-04-11T18:55:27.980Z,-5.9
2019-04-11T18:56:28.050Z,-5.9
2019-04-11T18:57:28.095Z,-5.9
2019-04-11T18:58:28.137Z,-5.8
2019-04-11T18:59:28.213Z,-5.8
2019-04-11T19:00:28.208Z,-6
2019-04-11T19:01:28.252Z,-6
2019-04-11T19:02:28.296Z,-6.1
2019-04-11T19:03:35.881Z,-5.9
2019-04-11T19:04:32.490Z,-5.4
2019-04-11T19:05:29.199Z,-5.8
2019-04-11T19:06:28.477Z,-5.7
2019-04-11T19:07:28.501Z,-5.7
2019-04-11T19:08:28.614Z,-5.8
2019-04-11T19:09:28.558Z,-5.9
2019-04-11T19:10:28.712Z,-5.6
2019-04-11T19:11:28.629Z,-5.4
2019-04-11T19:12:28.663Z,-5.3
2019-04-11T19:13:28.743Z,-5.4
2019-04-11T19:14:28.790Z,-5.7
2019-04-11T19:15:28.790Z,-5.6
2019-04-11T19:16:28.832Z,-5.8
2019-04-11T19:17:31.380Z,-5.6
2019-04-11T19:18:28.907Z,-5.5
2019-04-11T19:19:28.949Z,-5.7
2019-04-11T19:20:31.265Z,-5.9
2019-04-11T19:21:29.050Z,-5.6
2019-04-11T19:22:37.362Z,-5.6
2019-04-11T19:23:29.148Z,-5.8
2019-04-11T19:24:35.233Z,-5.9
2019-04-11T19:25:31.529Z,-6
2019-04-11T19:26:29.250Z,-5.9
2019-04-11T19:27:29.279Z,-6
2019-04-11T19:28:29.342Z,-5.8
2019-04-11T19:29:29.366Z,-5.8
2019-04-11T19:30:29.390Z,-5.6
2019-04-11T19:31:29.411Z,-5.7
2019-04-11T19:32:29.445Z,-6
2019-04-11T19:33:29.660Z,-6
2019-04-11T19:34:29.548Z,-5.8
2019-04-11T19:35:29.612Z,-5.7
2019-04-11T19:36:29.633Z,-5.9
2019-04-11T19:37:29.669Z,-5.8
2019-04-11T19:38:29.660Z,-5.5
2019-04-11T19:39:29.719Z,-5.7
2019-04-11T19:40:30.477Z,-5.4
2019-04-11T19:41:29.765Z,-5.6
2019-04-11T19:42:29.794Z,-5.6
2019-04-11T19:43:29.896Z,-5.7
2019-04-11T19:44:29.853Z,-5.7
2019-04-11T19:45:29.907Z,-5.9
2019-04-11T19:46:29.922Z,-5.8
2019-04-11T19:47:29.972Z,-5.9
2019-04-11T19:48:29.946Z,-5.9
2019-04-11T19:49:30.017Z,-5.8
2019-04-11T19:50:30.052Z,-5.7
2019-04-11T19:51:30.067Z,-5.9
2019-04-11T19:52:32.580Z,-5.7
2019-04-11T19:53:32.702Z,-5.7
2019-04-11T19:54:32.688Z,-6
2019-04-11T19:55:30.182Z,-6.1
2019-04-11T19:56:30.207Z,-5.9
2019-04-11T19:57:30.239Z,-6.1
2019-04-11T19:58:30.256Z,-6.1
2019-04-11T19:59:30.487Z,-6.3
2019-04-11T20:00:30.255Z,-6.4
2019-04-11T20:01:30.267Z,-6.2
2019-04-11T20:02:30.278Z,-6.1
2019-04-11T20:03:31.725Z,-5.8
2019-04-11T20:04:30.329Z,-5.9
2019-04-11T20:05:30.554Z,-6.1
2019-04-11T20:06:30.390Z,-6.1
2019-04-11T20:07:30.352Z,-6.2
2019-04-11T20:08:31.373Z,-6.1
2019-04-11T20:09:31.467Z,-5.9
2019-04-11T20:10:31.260Z,-5.9
2019-04-11T20:11:30.402Z,-6
2019-04-11T20:12:30.740Z,-6
2019-04-11T20:13:32.193Z,-6.3
2019-04-11T20:14:33.832Z,-6
2019-04-11T20:15:36.846Z,-5.9
2019-04-11T20:16:40.996Z,-5.9
2019-04-11T20:17:30.449Z,-5.8
2019-04-11T20:18:30.459Z,-5.9
2019-04-11T20:19:30.614Z,-5.5
2019-04-11T20:20:30.436Z,-5.6
2019-04-11T20:21:30.628Z,-5.5
2019-04-11T20:22:30.436Z,-5.6
2019-04-11T20:23:30.501Z,-5.6
2019-04-11T20:24:31.564Z,-5.7
2019-04-11T20:25:31.614Z,-5.8
2019-04-11T20:26:30.645Z,-5.3
2019-04-11T20:27:30.677Z,-5.3
2019-04-11T20:28:31.018Z,-5.3
2019-04-11T20:29:30.786Z,-5.3
2019-04-11T20:30:30.855Z,-5.3
2019-04-11T20:31:30.863Z,-5.4
2019-04-11T20:32:33.047Z,-5.5
2019-04-11T20:33:34.598Z,-5.3
2019-04-11T20:34:33.547Z,-5.8
2019-04-11T20:35:31.329Z,-5.6
2019-04-11T20:36:33.429Z,-5.3
2019-04-11T20:37:38.949Z,-5.3
2019-04-11T20:38:31.292Z,-5.6
2019-04-11T20:39:31.324Z,-5.7
2019-04-11T20:40:31.382Z,-6
2019-04-11T20:41:31.396Z,-5.6
2019-04-11T20:42:31.416Z,-5.8
2019-04-11T20:43:31.462Z,-5.7
2019-04-11T20:44:31.537Z,-5.7
2019-04-11T20:45:31.572Z,-6
2019-04-11T20:46:31.627Z,-6.2
2019-04-11T20:47:31.648Z,-6.3
2019-04-11T20:48:33.725Z,-6.3
2019-04-11T20:49:31.701Z,-6.1
2019-04-11T20:50:31.775Z,-6
2019-04-11T20:51:31.805Z,-6
2019-04-11T20:52:31.802Z,-5.9
2019-04-11T20:53:31.869Z,-6.2
2019-04-11T20:54:31.903Z,-6.2
2019-04-11T20:55:31.955Z,-6
2019-04-11T20:56:32.018Z,-5.8
2019-04-11T20:57:32.061Z,-5.7
2019-04-11T20:58:32.108Z,-5.9
2019-04-11T20:59:34.652Z,-5.8
2019-04-11T21:00:32.161Z,-5.9
2019-04-11T21:01:32.200Z,-5.9
2019-04-11T21:02:32.215Z,-5.8
2019-04-11T21:03:32.266Z,-5.8
2019-04-11T21:04:32.283Z,-5.7
2019-04-11T21:05:32.408Z,-5.8
2019-04-11T21:06:32.638Z,-5.9
2019-04-11T21:07:32.572Z,-6.1
2019-04-11T21:08:33.036Z,-5.9
2019-04-11T21:09:33.204Z,-5.9
2019-04-11T21:10:35.222Z,-5.7
2019-04-11T21:11:36.142Z,-5.6
2019-04-11T21:12:36.767Z,-5.9
2019-04-11T21:13:32.734Z,-6
2019-04-11T21:14:32.767Z,-6.1
2019-04-11T21:15:32.814Z,-6.1
2019-04-11T21:16:32.844Z,-5.6
2019-04-11T21:17:32.886Z,-5.4
2019-04-11T21:18:32.935Z,-5.4
2019-04-11T21:19:32.944Z,-5.6
2019-04-11T21:20:33.000Z,-5.7
2019-04-11T21:21:33.055Z,-5.9
2019-04-11T21:22:33.071Z,-6
2019-04-11T21:23:33.111Z,-6
2019-04-11T21:24:33.118Z,-5.8
2019-04-11T21:25:33.230Z,-5.8
2019-04-11T21:26:33.201Z,-5.9
2019-04-11T21:27:33.376Z,-5.4
2019-04-11T21:28:33.296Z,-5.3
2019-04-11T21:29:33.291Z,-5.7
2019-04-11T21:30:33.340Z,-5.8
2019-04-11T21:31:33.374Z,-5.5
2019-04-11T21:32:35.860Z,-5.6
2019-04-11T21:33:34.886Z,-5.5
2019-04-11T21:34:33.438Z,-5.5
2019-04-11T21:35:33.994Z,-5.6
2019-04-11T21:36:33.505Z,-5.9
2019-04-11T21:37:33.554Z,-5.8
2019-04-11T21:38:33.560Z,-5.8
2019-04-11T21:39:33.578Z,-5.5
2019-04-11T21:40:35.879Z,-5.2
2019-04-11T21:41:35.951Z,-5
2019-04-11T21:42:35.802Z,-5.4
2019-04-11T21:43:35.757Z,-5.3
2019-04-11T21:44:35.817Z,-5.5
2019-04-11T21:45:35.420Z,-5.6
2019-04-11T21:46:36.978Z,-5.9
2019-04-11T21:47:36.855Z,-5.4
2019-04-11T21:48:35.800Z,-5.4
2019-04-11T21:49:36.575Z,-6.2
2019-04-11T21:50:33.702Z,-6.3
2019-04-11T21:51:33.695Z,-6
2019-04-11T21:52:33.734Z,-6
2019-04-11T21:53:36.609Z,-5.9
2019-04-11T21:54:33.718Z,-5.8
2019-04-11T21:55:33.822Z,-5.7
2019-04-11T21:56:33.738Z,-5.6
2019-04-11T21:57:33.763Z,-5.7
2019-04-11T21:58:33.849Z,-5.8
2019-04-11T21:59:33.767Z,-5.7
2019-04-11T22:00:33.784Z,-5.4
2019-04-11T22:01:33.783Z,-5.6
2019-04-11T22:02:33.812Z,-5.8
2019-04-11T22:03:33.777Z,-5.9
2019-04-11T22:04:33.783Z,-6.2
2019-04-11T22:05:33.799Z,-5.8
2019-04-11T22:06:33.880Z,-5.9
2019-04-11T22:07:33.922Z,-6
2019-04-11T22:08:34.349Z,-6.2
2019-04-11T22:09:35.487Z,-6.5
2019-04-11T22:10:34.085Z,-6.3
2019-04-11T22:11:34.151Z,-6.2
2019-04-11T22:12:34.163Z,-6.1
2019-04-11T22:13:34.275Z,-5.8
2019-04-11T22:14:34.355Z,-5.9
2019-04-11T22:15:34.300Z,-5.9
2019-04-11T22:16:34.412Z,-5.7
2019-04-11T22:17:34.389Z,-5.9
2019-04-11T22:18:34.394Z,-6.1
2019-04-11T22:19:34.474Z,-6.2
2019-04-11T22:20:34.464Z,-5.9
2019-04-11T22:21:34.466Z,-5.8
2019-04-11T22:22:34.483Z,-5.8
2019-04-11T22:23:34.523Z,-6
2019-04-11T22:24:34.570Z,-5.8
2019-04-11T22:25:34.586Z,-5.5
2019-04-11T22:26:34.619Z,-5.9
2019-04-11T22:27:34.683Z,-5.9
2019-04-11T22:28:34.680Z,-5.5
2019-04-11T22:29:34.761Z,-5.3
2019-04-11T22:30:34.789Z,-5.5
2019-04-11T22:31:34.856Z,-5.5
2019-04-11T22:32:34.906Z,-5.6
2019-04-11T22:33:34.956Z,-5.7
2019-04-11T22:34:35.017Z,-5.6
2019-04-11T22:35:35.050Z,-5.6
2019-04-11T22:36:35.079Z,-5.6
2019-04-11T22:37:35.108Z,-5.6
2019-04-11T22:38:35.192Z,-5.5
2019-04-11T22:39:35.207Z,-5.7
2019-04-11T22:40:35.256Z,-5.6
2019-04-11T22:41:35.478Z,-5.7
2019-04-11T22:42:35.311Z,-5.8
2019-04-11T22:43:37.830Z,-5.7
2019-04-11T22:44:35.510Z,-5.3
2019-04-11T22:45:37.604Z,-5.6
2019-04-11T22:46:37.303Z,-5.2
2019-04-11T22:47:35.858Z,-4.8
2019-04-11T22:48:36.767Z,-4.7
2019-04-11T22:49:36.734Z,-4.9
2019-04-11T22:50:40.244Z,-5.1
2019-04-11T22:51:35.620Z,-5
2019-04-11T22:52:35.697Z,-5.3
2019-04-11T22:53:35.720Z,-5.2
2019-04-11T22:54:35.996Z,-5.3
2019-04-11T22:55:35.838Z,-5.1
2019-04-11T22:56:35.851Z,-5.1
2019-04-11T22:57:35.858Z,-5.2
2019-04-11T22:58:35.907Z,-5.2
2019-04-11T22:59:35.943Z,-5.3
2019-04-11T23:00:36.013Z,-5.3
2019-04-11T23:01:36.007Z,-5.3
2019-04-11T23:02:36.086Z,-5.1
2019-04-11T23:03:36.092Z,-5.3
2019-04-11T23:04:36.191Z,-5.2
2019-04-11T23:05:36.206Z,-5.1
2019-04-11T23:06:36.214Z,-5.3
2019-04-11T23:07:36.225Z,-5.6
2019-04-11T23:08:36.266Z,-5.5
2019-04-11T23:09:36.295Z,-5
2019-04-11T23:10:36.353Z,-4.8
2019-04-11T23:11:36.355Z,-4.9
2019-04-11T23:12:36.396Z,-4.9
2019-04-11T23:13:36.451Z,-5
2019-04-11T23:14:36.451Z,-5.2
2019-04-11T23:15:36.481Z,-5.1
2019-04-11T23:16:36.527Z,-5.1
2019-04-11T23:17:37.978Z,-4.6
2019-04-11T23:18:36.599Z,-4.8
2019-04-11T23:19:36.593Z,-4.9
2019-04-11T23:20:36.605Z,-4.9
2019-04-11T23:21:36.758Z,-5.1
2019-04-11T23:22:36.688Z,-5
2019-04-11T23:23:36.679Z,-4.9
2019-04-11T23:24:39.170Z,-5
2019-04-11T23:25:36.748Z,-4.8
2019-04-11T23:26:36.730Z,-4.8
2019-04-11T23:27:36.742Z,-4.7
2019-04-11T23:28:39.258Z,-4.6
2019-04-11T23:29:39.037Z,-4.4
2019-04-11T23:30:36.835Z,-4.4
2019-04-11T23:31:36.832Z,-4.6
2019-04-11T23:32:36.835Z,-4.3
2019-04-11T23:33:36.839Z,-4.5
2019-04-11T23:34:36.849Z,-4.5
2019-04-11T23:35:36.851Z,-4.2
2019-04-11T23:36:36.840Z,-4.5
2019-04-11T23:37:36.863Z,-4.4
2019-04-11T23:38:36.872Z,-4.8
2019-04-11T23:39:36.888Z,-5.2
2019-04-11T23:40:36.916Z,-5.1
2019-04-11T23:41:36.880Z,-4.8
2019-04-11T23:42:36.886Z,-5.1
2019-04-11T23:43:36.909Z,-5.4
2019-04-11T23:44:36.895Z,-5.3
2019-04-11T23:45:36.903Z,-5.4
2019-04-11T23:46:36.895Z,-5.3
2019-04-11T23:47:37.004Z,-5.4
2019-04-11T23:48:37.032Z,-5.4
2019-04-11T23:49:37.108Z,-5.4
2019-04-11T23:50:37.167Z,-5.3
2019-04-11T23:51:37.221Z,-5.1
2019-04-11T23:52:37.287Z,-5.4
2019-04-11T23:53:37.329Z,-5.6
2019-04-11T23:54:37.392Z,-5.5
2019-04-11T23:55:37.455Z,-5.2
2019-04-11T23:56:37.503Z,-5.2
2019-04-11T23:57:37.549Z,-5.2
2019-04-11T23:58:37.639Z,-5.1
2019-04-11T23:59:37.686Z,-4.9
